createdAt,value
2017-12-01T00:00:24.968Z,97122.58
2017-12-01T00:02:52.465Z,97115.30
2017-12-01T00:05:19.960Z,97119.25
2017-12-01T00:07:47.457Z,97118.63
2017-12-01T00:10:14.945Z,97130.27
2017-12-01T00:12:42.443Z,97126.98
2017-12-01T00:15:09.930Z,97120.94
2017-12-01T00:17:37.456Z,97119.72
2017-12-01T00:20:04.970Z,97117.41
2017-12-01T00:22:32.473Z,97109.30
2017-12-01T00:24:59.986Z,97117.47
2017-12-01T00:27:27.494Z,97117.70
2017-12-01T00:29:54.996Z,97125.25
2017-12-01T00:32:22.502Z,97120.09
2017-12-01T00:34:50.030Z,97123.20
2017-12-01T00:37:17.537Z,97124.59
2017-12-01T00:39:45.036Z,97125.84
2017-12-01T00:42:12.534Z,97134.92
2017-12-01T00:44:40.025Z,97129.88
2017-12-01T00:47:07.512Z,97127.80
2017-12-01T00:49:35.013Z,97137.89
2017-12-01T00:52:02.513Z,97128.05
2017-12-01T00:54:30.053Z,97127.91
2017-12-01T00:56:57.569Z,97137.89
2017-12-01T00:59:25.064Z,97138.80
2017-12-01T01:01:52.571Z,97138.52
2017-12-01T01:04:20.057Z,97137.26
2017-12-01T01:06:47.545Z,97139.26
2017-12-01T01:09:15.039Z,97144.94
2017-12-01T01:11:42.524Z,97146.58
2017-12-01T01:14:10.021Z,97141.38
2017-12-01T01:16:37.506Z,97150.80
2017-12-01T01:19:05.002Z,97141.54
2017-12-01T01:21:32.520Z,97143.01
2017-12-01T01:24:00.021Z,97146.35
2017-12-01T01:26:27.531Z,97150.99
2017-12-01T01:28:55.020Z,97158.59
2017-12-01T01:31:22.505Z,97159.05
2017-12-01T01:33:50.013Z,97154.89
2017-12-01T01:36:17.517Z,97150.70
2017-12-01T01:38:45.017Z,97148.81
2017-12-01T01:41:12.532Z,97157.14
2017-12-01T01:43:40.026Z,97155.81
2017-12-01T01:46:07.516Z,97156.91
2017-12-01T01:48:35.006Z,97160.05
2017-12-01T01:51:02.498Z,97155.72
2017-12-01T01:53:29.999Z,97152.52
2017-12-01T01:55:57.493Z,97150.69
2017-12-01T01:58:25.005Z,97155.60
2017-12-01T02:00:52.498Z,97149.52
2017-12-01T02:03:20.005Z,97149.73
2017-12-01T02:05:47.517Z,97147.98
2017-12-01T02:08:15.027Z,97152.14
2017-12-01T02:10:42.520Z,97150.86
2017-12-01T02:13:10.022Z,97149.09
2017-12-01T02:15:37.524Z,97153.47
2017-12-01T02:18:05.012Z,97148.50
2017-12-01T02:20:32.521Z,97144.84
2017-12-01T02:23:00.010Z,97143.52
2017-12-01T02:25:27.584Z,97147.38
2017-12-01T02:27:55.088Z,97147.18
2017-12-01T02:30:22.667Z,97154.20
2017-12-01T02:32:50.171Z,97156.16
2017-12-01T02:35:17.669Z,97154.29
2017-12-01T02:37:45.165Z,97163.08
2017-12-01T02:40:12.660Z,97164.26
2017-12-01T02:42:40.158Z,97171.02
2017-12-01T02:45:07.665Z,97168.09
2017-12-01T02:47:35.163Z,97170.84
2017-12-01T02:50:02.650Z,97169.55
2017-12-01T02:52:30.159Z,97174.06
2017-12-01T02:54:57.656Z,97170.53
2017-12-01T02:57:25.168Z,97170.83
2017-12-01T02:59:52.656Z,97175.91
2017-12-01T03:02:20.272Z,97178.49
2017-12-01T03:04:47.793Z,97177.23
2017-12-01T03:07:15.306Z,97180.20
2017-12-01T03:09:42.805Z,97179.06
2017-12-01T03:12:10.300Z,97184.54
2017-12-01T03:14:37.805Z,97192.32
2017-12-01T03:17:05.319Z,97191.69
2017-12-01T03:19:32.804Z,97194.69
2017-12-01T03:22:00.320Z,97202.22
2017-12-01T03:24:27.803Z,97197.95
2017-12-01T03:26:55.304Z,97200.31
2017-12-01T03:29:22.809Z,97201.67
2017-12-01T03:31:50.302Z,97201.75
2017-12-01T03:34:17.791Z,97206.48
2017-12-01T03:36:45.299Z,97207.14
2017-12-01T03:39:12.792Z,97206.90
2017-12-01T03:41:40.288Z,97215.24
2017-12-01T03:44:07.782Z,97224.66
2017-12-01T03:46:35.284Z,97222.16
2017-12-01T03:49:02.813Z,97224.01
2017-12-01T03:51:30.312Z,97229.88
2017-12-01T03:53:57.812Z,97222.08
2017-12-01T03:56:25.319Z,97231.96
2017-12-01T03:58:52.814Z,97235.45
2017-12-01T04:01:20.316Z,97235.05
2017-12-01T04:03:47.817Z,97244.16
2017-12-01T04:06:15.315Z,97244.42
2017-12-01T04:08:42.820Z,97248.51
2017-12-01T04:11:10.307Z,97242.34
2017-12-01T04:13:37.819Z,97252.08
2017-12-01T04:16:05.316Z,97248.36
2017-12-01T04:18:32.841Z,97250.83
2017-12-01T04:21:00.344Z,97242.83
2017-12-01T04:23:27.857Z,97252.92
2017-12-01T04:25:55.371Z,97244.41
2017-12-01T04:28:22.872Z,97259.53
2017-12-01T04:30:50.450Z,97262.84
2017-12-01T04:33:17.968Z,97262.14
2017-12-01T04:35:45.485Z,97267.21
2017-12-01T04:38:13.005Z,97272.09
2017-12-01T04:40:40.527Z,97265.95
2017-12-01T04:43:08.038Z,97272.23
2017-12-01T04:45:35.529Z,97276.56
2017-12-01T04:48:03.020Z,97280.69
2017-12-01T04:50:30.547Z,97282.45
2017-12-01T04:52:58.034Z,97283.94
2017-12-01T04:55:25.518Z,97288.91
2017-12-01T04:57:53.005Z,97290.88
2017-12-01T05:00:20.480Z,97291.91
2017-12-01T05:02:47.965Z,97292.61
2017-12-01T05:05:15.453Z,97297.70
2017-12-01T05:07:42.967Z,97309.97
2017-12-01T05:10:10.459Z,97304.45
2017-12-01T05:12:37.976Z,97315.73
2017-12-01T05:15:05.486Z,97312.92
2017-12-01T05:17:32.981Z,97321.31
2017-12-01T05:20:00.520Z,97325.61
2017-12-01T05:22:28.038Z,97329.55
2017-12-01T05:24:55.525Z,97320.80
2017-12-01T05:27:23.022Z,97326.78
2017-12-01T05:29:50.559Z,97329.20
2017-12-01T05:32:18.072Z,97331.89
2017-12-01T05:34:45.599Z,97332.44
2017-12-01T05:37:13.089Z,97334.16
2017-12-01T05:39:40.593Z,97335.78
2017-12-01T05:42:08.098Z,97345.48
2017-12-01T05:44:35.620Z,97344.74
2017-12-01T05:47:03.117Z,97345.56
2017-12-01T05:49:30.617Z,97352.42
2017-12-01T05:51:58.114Z,97352.53
2017-12-01T05:54:25.616Z,97356.70
2017-12-01T05:56:53.110Z,97362.87
2017-12-01T05:59:20.624Z,97367.27
2017-12-01T06:01:48.115Z,97371.56
2017-12-01T06:04:15.609Z,97377.83
2017-12-01T06:06:43.117Z,97376.50
2017-12-01T06:09:10.630Z,97381.86
2017-12-01T06:11:38.143Z,97382.33
2017-12-01T06:14:05.644Z,97394.18
2017-12-01T06:16:33.143Z,97393.63
2017-12-01T06:19:00.640Z,97395.88
2017-12-01T06:21:28.141Z,97393.52
2017-12-01T06:23:55.751Z,97402.42
2017-12-01T06:26:23.251Z,97402.11
2017-12-01T06:28:50.732Z,97409.15
2017-12-01T06:31:18.649Z,97409.58
2017-12-01T06:33:46.138Z,97414.48
2017-12-01T06:36:13.632Z,97418.27
2017-12-01T06:38:41.115Z,97413.27
2017-12-01T06:41:08.624Z,97412.84
2017-12-01T06:43:36.111Z,97420.39
2017-12-01T06:46:03.599Z,97430.10
2017-12-01T06:48:31.088Z,97427.31
2017-12-01T06:50:58.570Z,97427.48
2017-12-01T06:53:26.059Z,97430.76
2017-12-01T06:55:53.570Z,97422.89
2017-12-01T06:58:21.066Z,97427.58
2017-12-01T07:00:48.568Z,97432.34
2017-12-01T07:03:16.078Z,97438.33
2017-12-01T07:05:43.579Z,97441.56
2017-12-01T07:08:11.120Z,97452.34
2017-12-01T07:10:38.600Z,97462.63
2017-12-01T07:13:06.145Z,97471.39
2017-12-01T07:15:33.658Z,97472.38
2017-12-01T07:18:01.190Z,97477.25
2017-12-01T07:20:28.718Z,97477.73
2017-12-01T07:22:56.225Z,97473.56
2017-12-01T07:25:23.733Z,97476.37
2017-12-01T07:27:51.252Z,97471.63
2017-12-01T07:30:18.744Z,97472.23
2017-12-01T07:32:46.288Z,97482.05
2017-12-01T07:35:13.954Z,97472.63
2017-12-01T07:37:41.444Z,97480.02
2017-12-01T07:40:08.955Z,97490.23
2017-12-01T07:42:36.445Z,97490.25
2017-12-01T07:45:09.560Z,97488.91
2017-12-01T07:47:37.040Z,97497.07
2017-12-01T07:50:04.535Z,97505.50
2017-12-01T07:52:32.027Z,97500.66
2017-12-01T07:54:59.515Z,97510.09
2017-12-01T07:57:27.012Z,97511.90
2017-12-01T07:59:54.514Z,97527.86
2017-12-01T08:02:22.004Z,97523.94
2017-12-01T08:04:49.575Z,97523.32
2017-12-01T08:07:17.066Z,97526.11
2017-12-01T08:09:44.554Z,97527.64
2017-12-01T08:12:12.045Z,97534.08
2017-12-01T08:14:39.520Z,97542.72
2017-12-01T08:17:18.916Z,97543.12
2017-12-01T08:19:46.433Z,97546.67
2017-12-01T08:22:25.880Z,97542.36
2017-12-01T08:25:05.298Z,97558.52
2017-12-01T08:27:32.788Z,97563.75
2017-12-01T08:30:00.307Z,97568.41
2017-12-01T08:32:27.799Z,97567.45
2017-12-01T08:34:55.306Z,97570.08
2017-12-01T08:37:22.792Z,97571.17
2017-12-01T08:39:50.301Z,97573.55
2017-12-01T08:42:17.821Z,97574.59
2017-12-01T08:44:45.312Z,97576.91
2017-12-01T08:47:12.821Z,97585.45
2017-12-01T08:49:40.320Z,97590.02
2017-12-01T08:52:07.814Z,97593.22
2017-12-01T08:54:35.314Z,97585.04
2017-12-01T08:57:02.798Z,97586.56
2017-12-01T08:59:30.309Z,97598.56
2017-12-01T09:01:57.808Z,97597.48
2017-12-01T09:04:25.325Z,97603.52
2017-12-01T09:06:52.851Z,97607.53
2017-12-01T09:09:20.340Z,97603.97
2017-12-01T09:11:47.901Z,97618.28
2017-12-01T09:14:15.361Z,97624.23
2017-12-01T09:16:42.857Z,97621.30
2017-12-01T09:19:10.349Z,97621.56
2017-12-01T09:21:37.861Z,97629.30
2017-12-01T09:24:05.354Z,97633.44
2017-12-01T09:26:32.861Z,97636.95
2017-12-01T09:29:00.375Z,97646.11
2017-12-01T09:31:27.860Z,97650.55
2017-12-01T09:33:55.357Z,97646.55
2017-12-01T09:36:22.853Z,97654.21
2017-12-01T09:38:50.353Z,97661.18
2017-12-01T09:41:17.856Z,97662.58
2017-12-01T09:43:45.350Z,97656.83
2017-12-01T09:46:12.845Z,97661.99
2017-12-01T09:48:40.361Z,97672.25
2017-12-01T09:51:07.873Z,97670.06
2017-12-01T09:53:35.377Z,97675.33
2017-12-01T09:56:02.863Z,97678.70
2017-12-01T09:58:30.372Z,97681.03
2017-12-01T10:00:57.898Z,97675.81
2017-12-01T10:03:25.404Z,97681.01
2017-12-01T10:05:52.891Z,97682.61
2017-12-01T10:08:20.375Z,97687.33
2017-12-01T10:10:47.889Z,97676.56
2017-12-01T10:13:15.398Z,97684.84
2017-12-01T10:15:42.893Z,97684.48
2017-12-01T10:18:10.401Z,97685.65
2017-12-01T10:20:37.920Z,97684.94
2017-12-01T10:23:05.411Z,97681.23
2017-12-01T10:25:32.905Z,97681.45
2017-12-01T10:28:00.389Z,97683.58
2017-12-01T10:30:27.984Z,97686.77
2017-12-01T10:32:55.481Z,97687.50
2017-12-01T10:35:22.982Z,97681.62
2017-12-01T10:37:50.505Z,97688.45
2017-12-01T10:40:18.008Z,97690.86
2017-12-01T10:42:45.513Z,97692.48
2017-12-01T10:45:13.028Z,97688.52
2017-12-01T10:47:40.558Z,97694.02
2017-12-01T10:50:08.056Z,97687.45
2017-12-01T10:52:35.578Z,97692.77
2017-12-01T10:55:03.097Z,97691.76
2017-12-01T10:57:30.580Z,97691.09
2017-12-01T10:59:58.088Z,97688.42
2017-12-01T11:02:25.587Z,97698.00
2017-12-01T11:04:53.229Z,97696.34
2017-12-01T11:07:20.752Z,97691.74
2017-12-01T11:09:48.268Z,97693.78
2017-12-01T11:12:15.764Z,97699.13
2017-12-01T11:14:43.306Z,97701.22
2017-12-01T11:17:10.812Z,97696.67
2017-12-01T11:19:38.301Z,97697.43
2017-12-01T11:22:05.800Z,97696.02
2017-12-01T11:24:33.294Z,97691.55
2017-12-01T11:27:00.805Z,97702.55
2017-12-01T11:29:28.320Z,97697.73
2017-12-01T11:31:55.818Z,97694.73
2017-12-01T11:34:23.306Z,97702.78
2017-12-01T11:36:50.800Z,97706.89
2017-12-01T11:39:18.300Z,97703.42
2017-12-01T11:41:45.793Z,97714.44
2017-12-01T11:44:13.314Z,97708.59
2017-12-01T11:46:40.827Z,97705.73
2017-12-01T11:49:08.306Z,97703.20
2017-12-01T11:51:35.801Z,97710.16
2017-12-01T11:54:03.304Z,97709.62
2017-12-01T11:56:30.835Z,97705.87
2017-12-01T11:58:58.300Z,97712.97
2017-12-01T12:01:25.789Z,97715.95
2017-12-01T12:03:53.302Z,97712.11
2017-12-01T12:06:20.795Z,97709.98
2017-12-01T12:08:48.279Z,97716.16
2017-12-01T12:11:15.781Z,97717.57
2017-12-01T12:13:43.276Z,97717.66
2017-12-01T12:16:10.788Z,97713.80
2017-12-01T12:18:38.302Z,97719.55
2017-12-01T12:21:05.809Z,97727.88
2017-12-01T12:23:33.327Z,97724.50
2017-12-01T12:26:00.834Z,97723.19
2017-12-01T12:28:28.521Z,97727.39
2017-12-01T12:30:56.007Z,97728.55
2017-12-01T12:33:23.530Z,97729.78
2017-12-01T12:35:51.036Z,97738.05
2017-12-01T12:38:18.655Z,97747.38
2017-12-01T12:40:46.142Z,97738.04
2017-12-01T12:43:13.632Z,97740.88
2017-12-01T12:45:41.169Z,97743.30
2017-12-01T12:48:08.657Z,97733.05
2017-12-01T12:50:36.170Z,97740.02
2017-12-01T12:53:03.653Z,97741.80
2017-12-01T12:55:31.145Z,97743.73
2017-12-01T12:57:59.559Z,97746.78
2017-12-01T13:00:27.034Z,97745.76
2017-12-01T13:02:54.557Z,97737.73
2017-12-01T13:05:22.045Z,97745.83
2017-12-01T13:07:49.551Z,97749.13
2017-12-01T13:10:17.062Z,97749.88
2017-12-01T13:12:44.553Z,97748.11
2017-12-01T13:15:12.065Z,97759.33
2017-12-01T13:17:39.573Z,97751.45
2017-12-01T13:20:07.081Z,97754.47
2017-12-01T13:22:34.606Z,97759.19
2017-12-01T13:25:02.089Z,97757.77
2017-12-01T13:27:29.657Z,97759.28
2017-12-01T13:29:57.185Z,97762.64
2017-12-01T13:32:24.676Z,97765.70
2017-12-01T13:34:52.221Z,97764.80
2017-12-01T13:37:19.740Z,97770.64
2017-12-01T13:39:47.285Z,97771.56
2017-12-01T13:42:14.782Z,97771.16
2017-12-01T13:44:42.290Z,97782.05
2017-12-01T13:47:09.801Z,97776.30
2017-12-01T13:49:37.318Z,97777.38
2017-12-01T13:52:04.812Z,97772.95
2017-12-01T13:54:32.319Z,97773.46
2017-12-01T13:56:59.876Z,97783.20
2017-12-01T13:59:27.384Z,97779.86
2017-12-01T14:01:54.870Z,97783.39
2017-12-01T14:04:22.378Z,97772.23
2017-12-01T14:06:49.880Z,97782.85
2017-12-01T14:09:17.374Z,97787.20
2017-12-01T14:11:44.874Z,97797.98
2017-12-01T14:14:12.371Z,97793.38
2017-12-01T14:16:39.887Z,97804.44
2017-12-01T14:19:07.392Z,97813.07
2017-12-01T14:21:34.879Z,97809.75
2017-12-01T14:24:02.384Z,97809.70
2017-12-01T14:26:29.878Z,97820.93
2017-12-01T14:28:57.377Z,97824.22
2017-12-01T14:31:24.867Z,97829.38
2017-12-01T14:33:52.365Z,97832.19
2017-12-01T14:36:19.869Z,97838.45
2017-12-01T14:38:47.462Z,97848.52
2017-12-01T14:41:14.977Z,97848.95
2017-12-01T14:43:42.495Z,97849.59
2017-12-01T14:46:10.033Z,97861.95
2017-12-01T14:48:37.512Z,97858.36
2017-12-01T14:51:05.027Z,97867.39
2017-12-01T14:53:32.531Z,97871.77
2017-12-01T14:56:00.092Z,97880.02
2017-12-01T14:58:27.598Z,97883.51
2017-12-01T15:00:55.090Z,97891.13
2017-12-01T15:03:22.598Z,97889.58
2017-12-01T15:05:50.130Z,97895.35
2017-12-01T15:08:17.658Z,97900.31
2017-12-01T15:10:45.156Z,97895.83
2017-12-01T15:13:12.645Z,97888.19
2017-12-01T15:15:40.153Z,97892.80
2017-12-01T15:18:07.723Z,97897.66
2017-12-01T15:20:35.233Z,97894.45
2017-12-01T15:23:02.720Z,97888.34
2017-12-01T15:25:30.213Z,97892.33
2017-12-01T15:27:57.770Z,97894.19
2017-12-01T15:30:25.278Z,97895.84
2017-12-01T15:32:52.786Z,97902.64
2017-12-01T15:35:20.302Z,97903.72
2017-12-01T15:37:47.838Z,97903.46
2017-12-01T15:40:15.365Z,97895.63
2017-12-01T15:42:42.874Z,97907.31
2017-12-01T15:45:10.420Z,97908.62
2017-12-01T15:47:37.945Z,97910.48
2017-12-01T15:50:05.637Z,97914.00
2017-12-01T15:52:33.167Z,97924.00
2017-12-01T15:55:00.661Z,97925.76
2017-12-01T15:57:28.156Z,97929.52
2017-12-01T15:59:55.652Z,97936.47
2017-12-01T16:02:23.251Z,97937.89
2017-12-01T16:04:50.745Z,97937.55
2017-12-01T16:07:18.249Z,97938.48
2017-12-01T16:09:45.737Z,97942.94
2017-12-01T16:12:13.246Z,97941.01
2017-12-01T16:14:40.800Z,97940.52
2017-12-01T16:17:08.316Z,97945.16
2017-12-01T16:19:35.850Z,97943.20
2017-12-01T16:22:03.356Z,97951.37
2017-12-01T16:24:30.897Z,97958.56
2017-12-01T16:26:58.398Z,97961.80
2017-12-01T16:29:25.906Z,97958.01
2017-12-01T16:31:53.509Z,97961.68
2017-12-01T16:34:21.078Z,97958.37
2017-12-01T16:36:48.613Z,97955.17
2017-12-01T16:39:16.141Z,97954.51
2017-12-01T16:41:43.633Z,97959.11
2017-12-01T16:44:11.159Z,97961.80
2017-12-01T16:46:38.711Z,97969.29
2017-12-01T16:49:06.282Z,97974.63
2017-12-01T16:51:33.802Z,97978.30
2017-12-01T16:54:01.343Z,97976.13
2017-12-01T16:56:28.908Z,97983.41
2017-12-01T16:58:56.438Z,97994.53
2017-12-01T17:01:24.062Z,97994.78
2017-12-01T17:03:51.614Z,97996.84
2017-12-01T17:06:19.819Z,98002.56
2017-12-01T17:08:47.352Z,98004.64
2017-12-01T17:11:14.852Z,98002.02
2017-12-01T17:13:42.373Z,98002.25
2017-12-01T17:16:09.894Z,98005.63
2017-12-01T17:18:37.421Z,98003.83
2017-12-01T17:21:05.009Z,98011.76
2017-12-01T17:23:32.536Z,98004.13
2017-12-01T17:26:00.045Z,98011.93
2017-12-01T17:28:27.544Z,98013.91
2017-12-01T17:30:55.048Z,98018.86
2017-12-01T17:33:22.586Z,98018.28
2017-12-01T17:35:50.093Z,98022.49
2017-12-01T17:38:17.604Z,98023.64
2017-12-01T17:40:45.101Z,98032.47
2017-12-01T17:43:12.600Z,98031.33
2017-12-01T17:45:40.100Z,98046.58
2017-12-01T17:48:07.622Z,98040.48
2017-12-01T17:50:35.154Z,98046.36
2017-12-01T17:53:02.669Z,98044.92
2017-12-01T17:55:30.224Z,98050.13
2017-12-01T17:57:57.752Z,98055.75
2017-12-01T18:00:25.540Z,98060.31
2017-12-01T18:02:53.051Z,98062.28
2017-12-01T18:05:20.560Z,98067.37
2017-12-01T18:07:48.131Z,98068.26
2017-12-01T18:10:15.638Z,98067.81
2017-12-01T18:12:43.184Z,98072.00
2017-12-01T18:15:10.717Z,98073.16
2017-12-01T18:17:38.269Z,98076.64
2017-12-01T18:20:05.772Z,98079.36
2017-12-01T18:22:33.281Z,98080.29
2017-12-01T18:25:00.805Z,98076.50
2017-12-01T18:27:28.332Z,98077.61
2017-12-01T18:29:55.853Z,98079.73
2017-12-01T18:32:23.408Z,98086.82
2017-12-01T18:34:51.232Z,98094.87
2017-12-01T18:37:18.756Z,98093.97
2017-12-01T18:39:46.277Z,98094.80
2017-12-01T18:42:13.797Z,98094.80
2017-12-01T18:44:41.319Z,98092.45
2017-12-01T18:47:08.863Z,98091.89
2017-12-01T18:49:36.370Z,98096.13
2017-12-01T18:52:03.881Z,98097.23
2017-12-01T18:54:31.400Z,98099.77
2017-12-01T18:56:58.952Z,98100.45
2017-12-01T18:59:26.487Z,98098.62
2017-12-01T19:01:53.998Z,98100.02
2017-12-01T19:04:21.652Z,98106.73
2017-12-01T19:06:50.166Z,98102.37
2017-12-01T19:09:18.019Z,98107.58
2017-12-01T19:11:46.090Z,98109.63
2017-12-01T19:14:14.777Z,98106.18
2017-12-01T19:16:42.643Z,98104.07
2017-12-01T19:19:10.510Z,98108.14
2017-12-01T19:21:38.375Z,98105.77
2017-12-01T19:24:06.446Z,98107.54
2017-12-01T19:26:34.313Z,98115.67
2017-12-01T19:29:02.281Z,98122.82
2017-12-01T19:31:30.245Z,98131.84
2017-12-01T19:33:58.117Z,98132.36
2017-12-01T19:36:25.982Z,98136.59
2017-12-01T19:38:53.852Z,98140.91
2017-12-01T19:41:21.727Z,98142.55
2017-12-01T19:43:49.686Z,98151.69
2017-12-01T19:46:18.078Z,98152.47
2017-12-01T19:48:46.032Z,98147.89
2017-12-01T19:51:14.002Z,98149.23
2017-12-01T19:53:41.867Z,98155.25
2017-12-01T19:56:09.838Z,98150.36
2017-12-01T19:58:37.726Z,98157.52
2017-12-01T20:01:05.679Z,98153.71
2017-12-01T20:03:33.625Z,98154.16
2017-12-01T20:06:01.610Z,98155.97
2017-12-01T20:08:29.712Z,98162.03
2017-12-01T20:10:57.725Z,98165.20
2017-12-01T20:13:25.715Z,98166.13
2017-12-01T20:15:53.690Z,98171.76
2017-12-01T20:18:21.765Z,98165.81
2017-12-01T20:20:49.802Z,98178.10
2017-12-01T20:23:17.804Z,98183.06
2017-12-01T20:25:45.668Z,98183.06
2017-12-01T20:28:13.535Z,98183.25
2017-12-01T20:30:41.400Z,98185.44
2017-12-01T20:33:09.320Z,98185.76
2017-12-01T20:35:37.365Z,98179.80
2017-12-01T20:38:05.520Z,98177.99
2017-12-01T20:40:33.582Z,98179.95
2017-12-01T20:43:01.452Z,98181.34
2017-12-01T20:45:29.301Z,98188.41
2017-12-01T20:47:56.924Z,98192.56
2017-12-01T20:50:24.473Z,98198.92
2017-12-01T20:52:51.985Z,98188.19
2017-12-01T20:55:19.582Z,98198.27
2017-12-01T20:57:47.100Z,98203.83
2017-12-01T21:00:15.146Z,98205.38
2017-12-01T21:02:42.678Z,98197.67
2017-12-01T21:05:10.210Z,98191.20
2017-12-01T21:07:37.741Z,98202.48
2017-12-01T21:10:05.264Z,98211.91
2017-12-01T21:12:32.798Z,98213.82
2017-12-01T21:15:00.325Z,98217.42
2017-12-01T21:17:27.829Z,98215.47
2017-12-01T21:19:55.390Z,98229.06
2017-12-01T21:22:23.016Z,98224.89
2017-12-01T21:24:50.631Z,98225.84
2017-12-01T21:27:18.250Z,98224.01
2017-12-01T21:29:45.816Z,98227.84
2017-12-01T21:32:13.373Z,98219.50
2017-12-01T21:34:40.892Z,98226.80
2017-12-01T21:37:08.461Z,98221.56
2017-12-01T21:39:35.954Z,98222.59
2017-12-01T21:42:03.529Z,98230.68
2017-12-01T21:44:31.054Z,98226.33
2017-12-01T21:46:58.626Z,98224.98
2017-12-01T21:49:26.169Z,98228.09
2017-12-01T21:51:53.755Z,98225.97
2017-12-01T21:54:21.254Z,98227.45
2017-12-01T21:56:48.759Z,98234.69
2017-12-01T21:59:16.748Z,98230.64
2017-12-01T22:01:44.301Z,98237.75
2017-12-01T22:04:11.814Z,98238.77
2017-12-01T22:06:39.328Z,98243.49
2017-12-01T22:09:06.862Z,98258.02
2017-12-01T22:11:34.760Z,98254.47
2017-12-01T22:14:02.293Z,98252.20
2017-12-01T22:16:29.789Z,98254.67
2017-12-01T22:18:57.310Z,98254.33
2017-12-01T22:21:24.822Z,98249.59
2017-12-01T22:23:52.330Z,98253.59
2017-12-01T22:26:19.868Z,98245.75
2017-12-01T22:28:47.524Z,98246.81
2017-12-01T22:31:15.041Z,98255.64
2017-12-01T22:33:42.542Z,98260.23
2017-12-01T22:36:10.052Z,98260.41
2017-12-01T22:38:37.569Z,98266.30
2017-12-01T22:41:05.201Z,98276.94
2017-12-01T22:43:32.737Z,98274.66
2017-12-01T22:46:00.271Z,98268.88
2017-12-01T22:48:27.801Z,98273.26
2017-12-01T22:50:55.304Z,98275.97
2017-12-01T22:53:22.811Z,98273.50
2017-12-01T22:55:50.305Z,98269.27
2017-12-01T22:58:17.796Z,98273.52
2017-12-01T23:00:45.345Z,98279.27
2017-12-01T23:03:12.849Z,98285.69
2017-12-01T23:05:40.375Z,98285.23
2017-12-01T23:08:08.056Z,98282.00
2017-12-01T23:10:35.617Z,98285.83
2017-12-01T23:13:03.117Z,98290.66
2017-12-01T23:15:30.642Z,98290.83
2017-12-01T23:17:58.138Z,98292.62
2017-12-01T23:20:25.645Z,98288.70
2017-12-01T23:22:53.170Z,98294.03
2017-12-01T23:25:20.702Z,98297.38
2017-12-01T23:27:48.232Z,98294.91
2017-12-01T23:30:15.741Z,98304.33
2017-12-01T23:32:43.264Z,98303.74
2017-12-01T23:35:10.786Z,98304.72
2017-12-01T23:37:38.424Z,98299.53
2017-12-01T23:40:05.955Z,98305.69
2017-12-01T23:42:33.445Z,98302.59
2017-12-01T23:45:00.963Z,98309.94
2017-12-01T23:47:28.457Z,98308.26
2017-12-01T23:49:55.951Z,98305.66
2017-12-01T23:52:23.466Z,98306.61
2017-12-01T23:54:50.961Z,98315.09
2017-12-01T23:57:18.452Z,98313.88
2017-12-01T23:59:45.948Z,98311.38
